createdAt,value
2018-05-17T00:02:16.569Z,52.93
2018-05-17T00:04:44.227Z,52.59
2018-05-17T00:07:11.805Z,52.57
2018-05-17T00:09:39.408Z,52.43
2018-05-17T00:12:07.035Z,52.07
2018-05-17T00:14:34.673Z,52.17
2018-05-17T00:17:02.245Z,51.96
2018-05-17T00:19:29.819Z,51.85
2018-05-17T00:21:57.465Z,51.77
2018-05-17T00:24:25.104Z,51.80
2018-05-17T00:26:52.682Z,51.75
2018-05-17T00:29:20.246Z,51.86
2018-05-17T00:31:47.887Z,51.46
2018-05-17T00:34:15.439Z,51.26
2018-05-17T00:36:43.109Z,51.26
2018-05-17T00:39:10.777Z,50.71
2018-05-17T00:41:38.523Z,51.42
2018-05-17T00:44:06.111Z,51.40
2018-05-17T00:46:33.727Z,51.10
2018-05-17T00:49:01.279Z,50.61
2018-05-17T00:51:28.920Z,51.08
2018-05-17T00:53:56.538Z,51.01
2018-05-17T00:56:24.207Z,51.26
2018-05-17T00:58:51.824Z,51.81
2018-05-17T01:01:19.433Z,51.13
2018-05-17T01:03:47.083Z,50.85
2018-05-17T01:06:14.745Z,50.80
2018-05-17T01:08:42.342Z,51.26
2018-05-17T01:11:09.954Z,51.66
2018-05-17T01:13:37.519Z,51.36
2018-05-17T01:16:05.176Z,51.76
2018-05-17T01:18:32.834Z,51.58
2018-05-17T01:21:00.471Z,51.24
2018-05-17T01:23:28.108Z,51.57
2018-05-17T01:25:55.704Z,51.50
2018-05-17T01:28:23.306Z,51.37
2018-05-17T01:30:50.968Z,51.41
2018-05-17T01:33:18.552Z,51.39
2018-05-17T01:35:46.161Z,51.35
2018-05-17T01:38:25.487Z,51.69
2018-05-17T01:40:53.055Z,51.89
2018-05-17T01:43:20.652Z,51.72
2018-05-17T01:45:48.212Z,51.86
2018-05-17T01:48:15.749Z,51.56
2018-05-17T01:50:43.318Z,52.00
2018-05-17T01:53:10.889Z,51.98
2018-05-17T01:55:38.443Z,51.76
2018-05-17T01:58:06.020Z,51.53
2018-05-17T02:00:33.562Z,51.50
2018-05-17T02:03:01.163Z,51.77
2018-05-17T02:05:28.734Z,51.68
2018-05-17T02:07:56.336Z,51.90
2018-05-17T02:10:23.927Z,51.79
2018-05-17T02:12:51.547Z,51.83
2018-05-17T02:15:19.520Z,51.61
2018-05-17T02:17:47.149Z,51.38
2018-05-17T02:20:14.691Z,51.14
2018-05-17T02:22:42.256Z,51.25
2018-05-17T02:25:09.850Z,51.15
2018-05-17T02:27:37.409Z,51.20
2018-05-17T02:30:04.982Z,51.21
2018-05-17T02:32:32.545Z,51.40
2018-05-17T02:35:00.156Z,51.63
2018-05-17T02:37:27.719Z,51.55
2018-05-17T02:39:55.288Z,51.70
2018-05-17T02:42:22.835Z,51.43
2018-05-17T02:44:50.541Z,51.44
2018-05-17T02:47:18.116Z,51.59
2018-05-17T02:49:45.700Z,51.61
2018-05-17T02:52:13.288Z,51.70
2018-05-17T02:54:40.852Z,51.49
2018-05-17T02:57:08.412Z,51.74
2018-05-17T02:59:35.962Z,51.38
2018-05-17T03:02:03.516Z,51.34
2018-05-17T03:04:31.081Z,51.23
2018-05-17T03:06:58.672Z,51.34
2018-05-17T03:09:26.265Z,51.26
2018-05-17T03:11:53.802Z,51.55
2018-05-17T03:14:21.347Z,51.26
2018-05-17T03:16:48.945Z,51.04
2018-05-17T03:19:16.491Z,50.89
2018-05-17T03:21:44.078Z,50.81
2018-05-17T03:24:11.641Z,50.53
2018-05-17T03:26:39.211Z,50.76
2018-05-17T03:29:06.785Z,50.93
2018-05-17T03:31:34.351Z,50.36
2018-05-17T03:34:01.967Z,50.11
2018-05-17T03:36:29.533Z,50.13
2018-05-17T03:38:57.128Z,50.24
2018-05-17T03:41:24.726Z,50.12
2018-05-17T03:43:52.302Z,50.01
2018-05-17T03:46:19.891Z,50.18
2018-05-17T03:48:47.495Z,50.29
2018-05-17T03:51:15.345Z,50.00
2018-05-17T03:53:42.931Z,49.90
2018-05-17T03:56:10.518Z,49.97
2018-05-17T03:58:38.095Z,50.05
2018-05-17T04:01:17.341Z,50.21
2018-05-17T04:03:56.696Z,50.27
2018-05-17T04:06:42.176Z,50.11
2018-05-17T04:09:09.732Z,50.44
2018-05-17T04:11:37.407Z,50.58
2018-05-17T04:14:05.033Z,50.70
2018-05-17T04:16:32.633Z,50.95
2018-05-17T04:19:00.216Z,50.64
2018-05-17T04:21:27.837Z,50.54
2018-05-17T04:23:55.403Z,50.80
2018-05-17T04:26:22.967Z,50.62
2018-05-17T04:28:50.526Z,50.70
2018-05-17T04:31:18.086Z,50.44
2018-05-17T04:33:45.640Z,50.50
2018-05-17T04:36:13.351Z,50.34
2018-05-17T04:38:40.965Z,50.27
2018-05-17T04:41:08.525Z,50.73
2018-05-17T04:43:36.113Z,50.58
2018-05-17T04:46:03.726Z,50.68
2018-05-17T04:48:31.284Z,50.97
2018-05-17T04:50:58.854Z,50.65
2018-05-17T04:53:26.476Z,50.69
2018-05-17T04:55:54.061Z,50.63
2018-05-17T04:58:21.667Z,50.39
2018-05-17T05:00:49.234Z,50.06
2018-05-17T05:03:16.828Z,49.66
2018-05-17T05:05:44.376Z,49.20
2018-05-17T05:08:11.990Z,48.86
2018-05-17T05:10:39.581Z,48.46
2018-05-17T05:13:07.206Z,48.56
2018-05-17T05:15:34.779Z,48.76
2018-05-17T05:18:02.374Z,48.69
2018-05-17T05:20:29.944Z,48.46
2018-05-17T05:22:57.835Z,48.52
2018-05-17T05:25:25.482Z,48.02
2018-05-17T05:27:53.109Z,48.51
2018-05-17T05:30:20.789Z,48.24
2018-05-17T05:32:48.403Z,47.88
2018-05-17T05:35:16.020Z,47.77
2018-05-17T05:37:43.644Z,47.58
2018-05-17T05:40:11.717Z,47.86
2018-05-17T05:42:39.545Z,47.26
2018-05-17T05:45:07.788Z,47.55
2018-05-17T05:47:37.248Z,47.49
2018-05-17T05:50:05.811Z,47.29
2018-05-17T05:52:33.451Z,46.81
2018-05-17T05:55:01.753Z,46.81
2018-05-17T05:57:29.319Z,46.88
2018-05-17T05:59:56.883Z,47.29
2018-05-17T06:02:24.662Z,46.48
2018-05-17T06:04:52.204Z,46.45
2018-05-17T06:07:19.749Z,46.02
2018-05-17T06:09:47.382Z,46.23
2018-05-17T06:12:15.034Z,46.00
2018-05-17T06:14:42.700Z,45.91
2018-05-17T06:17:11.043Z,45.39
2018-05-17T06:19:39.003Z,44.96
2018-05-17T06:22:06.725Z,45.04
2018-05-17T06:24:35.080Z,45.28
2018-05-17T06:27:02.708Z,44.92
2018-05-17T06:29:30.450Z,44.68
2018-05-17T06:31:58.162Z,44.45
2018-05-17T06:34:27.123Z,43.92
2018-05-17T06:36:56.124Z,43.93
2018-05-17T06:39:24.142Z,43.89
2018-05-17T06:41:51.948Z,43.39
2018-05-17T06:44:19.511Z,43.06
2018-05-17T06:46:47.171Z,42.99
2018-05-17T06:49:14.980Z,42.49
2018-05-17T06:51:43.269Z,43.38
2018-05-17T06:54:11.242Z,41.89
2018-05-17T06:56:39.623Z,41.87
2018-05-17T06:59:07.338Z,41.11
2018-05-17T07:01:34.939Z,38.88
2018-05-17T07:04:02.554Z,37.73
2018-05-17T07:06:30.196Z,36.63
2018-05-17T07:08:57.803Z,35.93
2018-05-17T07:11:25.457Z,34.16
2018-05-17T07:13:53.013Z,33.43
2018-05-17T07:16:20.657Z,33.93
2018-05-17T07:18:48.498Z,34.50
2018-05-17T07:21:15.796Z,34.29
2018-05-17T07:23:43.393Z,35.05
2018-05-17T07:26:11.013Z,35.14
2018-05-17T07:28:38.605Z,35.38
2018-05-17T07:31:06.255Z,35.17
2018-05-17T07:33:33.996Z,35.27
2018-05-17T07:36:01.641Z,35.48
2018-05-17T07:38:29.258Z,35.03
2018-05-17T07:40:57.392Z,34.68
2018-05-17T07:43:24.948Z,34.31
2018-05-17T07:45:52.563Z,33.60
2018-05-17T07:48:20.134Z,32.88
2018-05-17T07:50:47.744Z,32.95
2018-05-17T07:53:15.333Z,33.08
2018-05-17T07:55:43.016Z,33.03
2018-05-17T07:58:10.651Z,32.11
2018-05-17T08:00:38.312Z,32.57
2018-05-17T08:03:06.223Z,31.89
2018-05-17T08:05:33.848Z,30.35
2018-05-17T08:08:01.444Z,28.22
2018-05-17T08:10:29.078Z,28.70
2018-05-17T08:12:56.743Z,28.05
2018-05-17T08:15:24.450Z,27.73
2018-05-17T08:17:52.115Z,27.14
2018-05-17T08:20:19.653Z,25.80
2018-05-17T08:22:47.294Z,25.72
2018-05-17T08:25:14.890Z,24.67
2018-05-17T08:27:42.504Z,24.13
2018-05-17T08:30:10.054Z,23.17
2018-05-17T08:32:37.736Z,22.87
2018-05-17T08:35:05.710Z,22.75
2018-05-17T08:37:33.291Z,21.83
2018-05-17T08:40:00.877Z,21.09
2018-05-17T08:42:28.520Z,19.95
2018-05-17T08:44:56.662Z,20.75
2018-05-17T08:47:24.311Z,20.13
2018-05-17T08:49:52.028Z,19.65
2018-05-17T08:52:19.638Z,20.06
2018-05-17T08:54:47.292Z,19.49
2018-05-17T08:57:14.878Z,19.19
2018-05-17T08:59:42.454Z,19.65
2018-05-17T09:02:10.058Z,20.23
2018-05-17T09:04:37.644Z,19.90
2018-05-17T09:07:05.249Z,19.20
2018-05-17T09:09:32.828Z,18.86
2018-05-17T09:12:00.401Z,18.38
2018-05-17T09:14:27.964Z,17.51
2018-05-17T09:16:55.598Z,18.00
2018-05-17T09:19:23.171Z,16.97
2018-05-17T09:21:50.766Z,16.44
2018-05-17T09:24:18.376Z,15.91
2018-05-17T09:26:45.972Z,15.18
2018-05-17T09:29:13.578Z,15.43
2018-05-17T09:31:41.177Z,15.98
2018-05-17T09:34:08.830Z,15.00
2018-05-17T09:36:36.775Z,15.46
2018-05-17T09:39:04.380Z,15.44
2018-05-17T09:41:31.959Z,14.89
2018-05-17T09:43:59.595Z,14.86
2018-05-17T09:46:27.187Z,14.01
2018-05-17T09:48:54.786Z,13.93
2018-05-17T09:51:22.421Z,13.59
2018-05-17T09:53:49.972Z,13.72
2018-05-17T09:56:17.515Z,13.39
2018-05-17T09:58:45.096Z,12.81
2018-05-17T10:01:12.652Z,12.76
2018-05-17T10:03:40.228Z,12.78
2018-05-17T10:06:07.808Z,12.76
2018-05-17T10:08:35.374Z,12.40
2018-05-17T10:11:02.912Z,13.04
2018-05-17T10:13:30.490Z,12.91
2018-05-17T10:15:58.082Z,12.57
2018-05-17T10:18:25.673Z,12.11
2018-05-17T10:20:53.234Z,12.03
2018-05-17T10:23:20.845Z,12.10
2018-05-17T10:25:48.426Z,12.11
2018-05-17T10:28:15.995Z,12.05
2018-05-17T10:30:43.586Z,11.57
2018-05-17T10:33:11.153Z,11.46
2018-05-17T10:35:38.713Z,11.20
2018-05-17T10:38:06.300Z,11.63
2018-05-17T10:40:37.807Z,10.52
2018-05-17T10:43:05.402Z,10.47
2018-05-17T10:45:33.007Z,10.30
2018-05-17T10:48:00.581Z,10.09
2018-05-17T10:50:28.126Z,9.72
2018-05-17T10:52:55.733Z,10.04
2018-05-17T10:55:23.361Z,10.19
2018-05-17T10:57:50.954Z,9.68
2018-05-17T11:00:18.553Z,9.46
2018-05-17T11:02:46.111Z,9.59
2018-05-17T11:05:13.725Z,9.11
2018-05-17T11:07:41.260Z,9.31
2018-05-17T11:10:08.824Z,9.46
2018-05-17T11:12:36.468Z,9.59
2018-05-17T11:15:04.119Z,9.85
2018-05-17T11:17:31.704Z,10.07
2018-05-17T11:19:59.390Z,10.08
2018-05-17T11:22:26.949Z,10.50
2018-05-17T11:24:54.516Z,11.20
2018-05-17T11:27:22.130Z,12.12
2018-05-17T11:29:49.723Z,12.46
2018-05-17T11:32:17.257Z,13.00
2018-05-17T11:34:44.869Z,14.18
2018-05-17T11:37:12.473Z,14.92
2018-05-17T11:39:40.096Z,15.68
2018-05-17T11:42:07.629Z,16.81
2018-05-17T11:44:35.267Z,17.06
2018-05-17T11:47:02.840Z,17.57
2018-05-17T11:49:30.449Z,18.59
2018-05-17T11:51:57.997Z,18.58
2018-05-17T11:54:25.711Z,18.94
2018-05-17T11:56:53.353Z,20.02
2018-05-17T11:59:21.021Z,20.26
2018-05-17T12:01:48.754Z,20.11
2018-05-17T12:04:16.411Z,20.93
2018-05-17T12:06:44.550Z,20.13
2018-05-17T12:09:12.132Z,20.83
2018-05-17T12:11:39.702Z,20.79
2018-05-17T12:14:07.369Z,20.91
2018-05-17T12:16:34.926Z,22.04
2018-05-17T12:19:02.585Z,21.82
2018-05-17T12:21:30.227Z,21.92
2018-05-17T12:23:57.832Z,21.80
2018-05-17T12:26:25.415Z,22.29
2018-05-17T12:28:53.005Z,22.38
2018-05-17T12:31:20.613Z,22.67
2018-05-17T12:33:48.181Z,22.93
2018-05-17T12:36:15.741Z,23.04
2018-05-17T12:38:43.291Z,23.22
2018-05-17T12:41:11.747Z,23.02
2018-05-17T12:43:39.294Z,23.27
2018-05-17T12:46:06.860Z,23.38
2018-05-17T12:48:34.453Z,23.37
2018-05-17T12:51:02.041Z,23.22
2018-05-17T12:53:29.837Z,23.28
2018-05-17T12:55:57.413Z,23.34
2018-05-17T12:58:25.182Z,23.67
2018-05-17T13:00:53.063Z,23.34
2018-05-17T13:03:20.654Z,23.43
2018-05-17T13:05:48.241Z,23.62
2018-05-17T13:08:15.801Z,23.64
2018-05-17T13:10:43.506Z,23.44
2018-05-17T13:13:11.140Z,23.46
2018-05-17T13:15:38.820Z,23.94
2018-05-17T13:18:06.358Z,23.57
2018-05-17T13:20:33.983Z,23.45
2018-05-17T13:23:01.539Z,22.68
2018-05-17T13:25:29.142Z,22.91
2018-05-17T13:27:56.680Z,23.50
2018-05-17T13:30:24.325Z,23.50
2018-05-17T13:32:51.890Z,23.44
2018-05-17T13:35:19.429Z,23.61
2018-05-17T13:37:46.997Z,23.86
2018-05-17T13:40:14.536Z,23.83
2018-05-17T13:42:42.088Z,24.04
2018-05-17T13:45:09.699Z,23.93
2018-05-17T13:47:37.299Z,23.85
2018-05-17T13:50:04.939Z,23.99
2018-05-17T13:52:32.543Z,24.21
2018-05-17T13:55:00.142Z,24.36
2018-05-17T13:57:27.760Z,23.99
2018-05-17T13:59:55.317Z,24.38
2018-05-17T14:02:22.943Z,24.40
2018-05-17T14:04:50.593Z,24.35
2018-05-17T14:07:18.182Z,24.00
2018-05-17T14:09:45.745Z,24.27
2018-05-17T14:12:13.351Z,24.45
2018-05-17T14:14:40.872Z,24.72
2018-05-17T14:17:08.490Z,24.90
2018-05-17T14:19:36.058Z,24.54
2018-05-17T14:22:03.629Z,24.68
2018-05-17T14:24:31.227Z,24.84
2018-05-17T14:26:58.801Z,25.05
2018-05-17T14:29:26.368Z,25.18
2018-05-17T14:31:53.955Z,25.30
2018-05-17T14:34:21.626Z,24.74
2018-05-17T14:36:49.192Z,24.85
2018-05-17T14:39:17.505Z,24.93
2018-05-17T14:41:45.132Z,24.88
2018-05-17T14:44:12.753Z,24.76
2018-05-17T14:46:40.286Z,24.91
2018-05-17T14:49:07.853Z,25.03
2018-05-17T14:51:35.456Z,25.11
2018-05-17T14:54:03.252Z,25.05
2018-05-17T14:56:30.883Z,25.02
2018-05-17T14:58:58.668Z,25.22
2018-05-17T15:01:26.236Z,24.96
2018-05-17T15:03:53.823Z,25.06
2018-05-17T15:06:21.425Z,25.34
2018-05-17T15:08:48.998Z,25.02
2018-05-17T15:11:16.799Z,24.94
2018-05-17T15:13:44.400Z,25.10
2018-05-17T15:16:12.120Z,25.13
2018-05-17T15:18:39.741Z,25.27
2018-05-17T15:21:07.387Z,25.27
2018-05-17T15:23:35.022Z,25.29
2018-05-17T15:26:02.584Z,25.55
2018-05-17T15:28:30.159Z,25.57
2018-05-17T15:30:57.778Z,25.62
2018-05-17T15:33:25.342Z,25.79
2018-05-17T15:35:52.897Z,25.67
2018-05-17T15:38:20.545Z,25.68
2018-05-17T15:40:48.167Z,25.75
2018-05-17T15:43:15.733Z,25.90
2018-05-17T15:45:43.390Z,26.10
2018-05-17T15:48:11.111Z,26.26
2018-05-17T15:50:38.656Z,26.47
2018-05-17T15:53:06.252Z,26.58
2018-05-17T15:55:33.916Z,26.80
2018-05-17T15:58:01.519Z,26.95
2018-05-17T16:00:29.100Z,27.10
2018-05-17T16:02:56.717Z,27.09
2018-05-17T16:05:24.329Z,27.14
2018-05-17T16:07:51.933Z,27.25
2018-05-17T16:10:20.277Z,27.43
2018-05-17T16:12:48.141Z,27.44
2018-05-17T16:15:15.979Z,27.50
2018-05-17T16:17:43.500Z,27.56
2018-05-17T16:20:11.090Z,27.77
2018-05-17T16:22:38.935Z,27.94
2018-05-17T16:25:06.745Z,27.77
2018-05-17T16:27:34.438Z,27.89
2018-05-17T16:30:02.045Z,27.80
2018-05-17T16:32:29.689Z,27.81
2018-05-17T16:34:57.394Z,28.19
2018-05-17T16:37:25.060Z,28.21
2018-05-17T16:39:53.209Z,28.42
2018-05-17T16:42:20.868Z,28.60
2018-05-17T16:44:48.475Z,28.81
2018-05-17T16:47:16.022Z,28.91
2018-05-17T16:49:43.556Z,29.09
2018-05-17T16:52:11.199Z,29.03
2018-05-17T16:54:38.819Z,29.29
2018-05-17T16:57:06.681Z,29.26
2018-05-17T16:59:34.343Z,29.53
2018-05-17T17:02:01.909Z,29.60
2018-05-17T17:04:29.523Z,29.70
2018-05-17T17:06:57.187Z,29.40
2018-05-17T17:09:24.697Z,29.37
2018-05-17T17:11:52.304Z,29.54
2018-05-17T17:14:19.879Z,29.68
2018-05-17T17:16:47.520Z,29.97
2018-05-17T17:19:15.136Z,30.04
2018-05-17T17:21:42.701Z,30.19
2018-05-17T17:24:11.201Z,30.30
2018-05-17T17:26:38.745Z,30.77
2018-05-17T17:29:06.308Z,30.99
2018-05-17T17:31:33.877Z,30.86
2018-05-17T17:34:01.455Z,30.97
2018-05-17T17:36:29.211Z,31.28
2018-05-17T17:38:56.753Z,31.43
2018-05-17T17:41:24.308Z,31.61
2018-05-17T17:43:51.910Z,31.70
2018-05-17T17:46:19.443Z,31.85
2018-05-17T17:48:47.023Z,32.28
2018-05-17T17:51:14.565Z,32.44
2018-05-17T17:53:42.148Z,33.54
2018-05-17T17:56:09.704Z,33.19
2018-05-17T17:58:37.285Z,33.59
2018-05-17T18:01:04.824Z,33.34
2018-05-17T18:03:32.552Z,32.98
2018-05-17T18:06:00.131Z,33.21
2018-05-17T18:08:27.723Z,33.67
2018-05-17T18:10:55.267Z,33.69
2018-05-17T18:13:22.910Z,33.67
2018-05-17T18:15:51.141Z,33.68
2018-05-17T18:18:19.708Z,33.83
2018-05-17T18:20:47.272Z,33.95
2018-05-17T18:23:14.890Z,34.01
2018-05-17T18:25:42.467Z,34.10
2018-05-17T18:28:10.045Z,34.21
2018-05-17T18:30:37.625Z,34.14
2018-05-17T18:33:05.984Z,34.17
2018-05-17T18:35:33.565Z,34.25
2018-05-17T18:38:01.141Z,34.57
2018-05-17T18:40:28.822Z,34.66
2018-05-17T18:42:56.434Z,34.79
2018-05-17T18:45:24.139Z,34.89
2018-05-17T18:47:51.912Z,35.12
2018-05-17T18:50:19.528Z,35.21
2018-05-17T18:52:47.175Z,35.31
2018-05-17T18:55:14.797Z,35.38
2018-05-17T18:57:42.463Z,35.58
2018-05-17T19:00:10.148Z,35.80
2018-05-17T19:02:38.034Z,35.82
2018-05-17T19:05:05.703Z,36.04
2018-05-17T19:07:33.395Z,36.16
2018-05-17T19:10:01.388Z,36.37
2018-05-17T19:12:29.016Z,36.63
2018-05-17T19:14:56.787Z,36.86
2018-05-17T19:17:26.363Z,36.98
2018-05-17T19:19:54.249Z,36.91
2018-05-17T19:22:21.874Z,37.12
2018-05-17T19:24:50.114Z,37.36
2018-05-17T19:27:17.730Z,37.26
2018-05-17T19:29:45.449Z,37.46
2018-05-17T19:32:13.100Z,37.76
2018-05-17T19:34:40.759Z,37.87
2018-05-17T19:37:08.533Z,38.04
2018-05-17T19:39:36.204Z,38.09
2018-05-17T19:42:03.856Z,38.18
2018-05-17T19:44:31.555Z,38.59
2018-05-17T19:46:59.189Z,38.81
2018-05-17T19:49:27.000Z,38.70
2018-05-17T19:51:54.628Z,38.98
2018-05-17T19:54:22.306Z,39.11
2018-05-17T19:56:50.018Z,39.37
2018-05-17T19:59:17.647Z,39.38
2018-05-17T20:01:45.303Z,39.67
2018-05-17T20:04:12.897Z,39.79
2018-05-17T20:06:40.525Z,39.89
2018-05-17T20:09:08.178Z,39.87
2018-05-17T20:11:35.825Z,40.03
2018-05-17T20:14:03.486Z,40.49
2018-05-17T20:16:31.176Z,40.68
2018-05-17T20:18:58.782Z,40.61
2018-05-17T20:21:26.369Z,40.76
2018-05-17T20:23:53.932Z,40.99
2018-05-17T20:26:21.510Z,41.05
2018-05-17T20:28:49.083Z,41.12
2018-05-17T20:31:16.652Z,41.21
2018-05-17T20:33:44.194Z,41.35
2018-05-17T20:36:11.764Z,41.47
2018-05-17T20:38:39.316Z,41.70
2018-05-17T20:41:06.924Z,41.80
2018-05-17T20:43:34.544Z,42.09
2018-05-17T20:46:02.117Z,41.92
2018-05-17T20:48:29.687Z,42.15
2018-05-17T20:50:57.342Z,42.39
2018-05-17T20:53:24.892Z,42.51
2018-05-17T20:55:52.776Z,42.59
2018-05-17T20:58:20.583Z,42.59
2018-05-17T21:00:48.528Z,42.60
2018-05-17T21:05:49.845Z,42.92
2018-05-17T21:08:17.387Z,42.98
2018-05-17T21:10:45.010Z,42.92
2018-05-17T21:13:12.612Z,43.16
2018-05-17T21:15:40.171Z,43.26
2018-05-17T21:18:07.733Z,43.49
2018-05-17T21:20:35.276Z,43.58
2018-05-17T21:23:02.831Z,43.59
2018-05-17T21:25:30.380Z,43.78
2018-05-17T21:27:57.995Z,43.93
2018-05-17T21:30:25.544Z,44.04
2018-05-17T21:32:53.124Z,44.20
2018-05-17T21:35:20.674Z,44.27
2018-05-17T21:37:48.270Z,44.41
2018-05-17T21:40:15.857Z,44.61
2018-05-17T21:42:43.435Z,44.59
2018-05-17T21:45:11.114Z,44.61
2018-05-17T21:47:38.748Z,44.76
2018-05-17T21:50:06.332Z,44.90
2018-05-17T21:52:33.981Z,44.96
2018-05-17T21:55:01.539Z,44.94
2018-05-17T21:57:29.115Z,45.01
2018-05-17T21:59:56.703Z,45.15
2018-05-17T22:02:24.318Z,45.18
2018-05-17T22:04:51.874Z,45.42
2018-05-17T22:07:19.511Z,45.33
2018-05-17T22:09:47.079Z,45.59
2018-05-17T22:12:14.639Z,45.58
2018-05-17T22:14:42.189Z,45.71
2018-05-17T22:17:09.767Z,45.91
2018-05-17T22:19:37.333Z,46.01
2018-05-17T22:22:04.901Z,46.04
2018-05-17T22:24:32.441Z,46.13
2018-05-17T22:27:00.007Z,46.15
2018-05-17T22:29:27.650Z,46.30
2018-05-17T22:31:55.236Z,46.37
2018-05-17T22:34:22.766Z,46.48
2018-05-17T22:36:50.412Z,46.47
2018-05-17T22:39:17.933Z,46.51
2018-05-17T22:41:45.473Z,46.57
2018-05-17T22:44:13.201Z,46.69
2018-05-17T22:46:40.748Z,46.83
2018-05-17T22:49:08.320Z,46.93
2018-05-17T22:51:35.866Z,46.96
2018-05-17T22:54:03.450Z,47.03
2018-05-17T22:56:42.815Z,47.13
2018-05-17T22:59:10.476Z,47.32
2018-05-17T23:01:38.033Z,47.28
2018-05-17T23:04:06.061Z,47.09
2018-05-17T23:06:33.593Z,46.97
2018-05-17T23:09:01.130Z,47.10
2018-05-17T23:11:28.663Z,46.86
2018-05-17T23:13:56.276Z,47.16
2018-05-17T23:16:23.822Z,47.04
2018-05-17T23:18:51.409Z,46.84
2018-05-17T23:21:19.067Z,46.71
2018-05-17T23:23:46.681Z,46.79
2018-05-17T23:26:14.252Z,46.61
2018-05-17T23:28:41.843Z,46.55
2018-05-17T23:31:09.382Z,46.35
2018-05-17T23:33:37.250Z,46.29
2018-05-17T23:36:04.828Z,46.27
2018-05-17T23:38:32.447Z,46.27
2018-05-17T23:41:12.477Z,46.21
2018-05-17T23:43:40.129Z,46.19
2018-05-17T23:46:07.742Z,46.22
2018-05-17T23:48:35.355Z,46.18
2018-05-17T23:51:02.930Z,46.29
2018-05-17T23:53:30.506Z,46.09
2018-05-17T23:55:58.302Z,45.89
2018-05-17T23:58:25.956Z,45.84
